Time;durP1;ratioP1;P1;durP2;ratioP2;P2;SDS_P1;SDS_P2;PMS_P1;PMS_P2;Temp;Humidity;BMP_temperature;BMP_pressure;BME280_temperature;BME280_humidity;BME280_pressure;Samples;Min_cycle;Max_cycle;Signal;HPM_P1;HPM_P2
2024/02/22 00:00:03;;;;;;;;;;;154.10;2252.80;;;;;;5088298;28;19942;-75
2024/02/22 00:02:29;;;;;;;;;;;154.10;2252.80;;;;;;5075421;28;19915;-75
2024/02/22 00:04:55;;;;;;;;;;;154.00;2252.80;;;;;;5079323;28;19908;-74
2024/02/22 00:07:21;;;;;;;;;;;154.00;2252.80;;;;;;5087096;28;19912;-75
2024/02/22 00:09:47;;;;;;;;;;;153.90;2252.80;;;;;;5077433;28;20283;-75
2024/02/22 00:12:13;;;;;;;;;;;154.00;2252.80;;;;;;5082947;28;19908;-74
2024/02/22 00:14:40;;;;;;;;;;;154.00;2252.80;;;;;;5076528;28;19915;-74
2024/02/22 00:17:06;;;;;;;;;;;154.10;2252.80;;;;;;5085718;28;19924;-73
2024/02/22 00:19:31;;;;;;;;;;;153.90;2252.80;;;;;;5080565;28;19913;-74
2024/02/22 00:21:57;;;;;;;;;;;153.70;2252.80;;;;;;5081576;28;19909;-74
2024/02/22 00:24:23;;;;;;;;;;;153.70;2252.80;;;;;;5088807;28;19909;-74
2024/02/22 00:26:49;;;;;;;;;;;153.70;2252.80;;;;;;5072873;28;19917;-75
2024/02/22 00:29:14;;;;;;;;;;;153.60;2252.80;;;;;;5077106;28;20363;-78
2024/02/22 00:31:40;;;;;;;;;;;128.90;2252.80;;;;;;5079590;28;19934;-75
2024/02/22 00:34:06;;;;;;;;;;;153.60;2252.80;;;;;;5082964;28;19959;-75
2024/02/22 00:36:41;;;;;;;;;;;128.90;2252.80;;;;;;5086025;28;19924;-75
2024/02/22 00:39:08;;;;;;;;;;;128.80;2252.80;;;;;;5084774;28;19913;-78
2024/02/22 00:41:34;;;;;;;;;;;128.70;2252.80;;;;;;5067474;28;19908;-74
2024/02/22 00:43:59;;;;;;;;;;;128.60;2252.80;;;;;;5075619;28;19908;-75
2024/02/22 00:46:25;;;;;;;;;;;128.60;2252.80;;;;;;5075880;28;19915;-74
2024/02/22 00:48:50;;;;;;;;;;;128.70;2252.80;;;;;;5075807;28;20355;-75
2024/02/22 00:51:16;;;;;;;;;;;128.80;2252.80;;;;;;5075841;28;19908;-75
2024/02/22 00:53:42;;;;;;;;;;;128.90;2252.80;;;;;;5075654;28;20492;-77
2024/02/22 00:56:07;;;;;;;;;;;128.80;2252.80;;;;;;5075549;28;20021;-74
2024/02/22 00:58:33;;;;;;;;;;;128.80;2252.80;;;;;;5075770;28;20284;-74
2024/02/22 01:00:58;;;;;;;;;;;128.80;2252.80;;;;;;5075737;28;19935;-78
2024/02/22 01:03:25;;;;;;;;;;;128.70;2252.80;;;;;;5094096;28;20363;-75
2024/02/22 01:05:51;;;;;;;;;;;128.70;2252.80;;;;;;5095640;28;19919;-76
2024/02/22 01:08:16;;;;;;;;;;;128.70;2252.80;;;;;;5111392;28;19999;-74
2024/02/22 01:10:42;;;;;;;;;;;128.60;2252.80;;;;;;5095537;28;19958;-75
2024/02/22 01:13:08;;;;;;;;;;;128.60;2252.80;;;;;;5095235;28;19908;-74
2024/02/22 01:15:35;;;;;;;;;;;128.60;2252.80;;;;;;5111290;28;19908;-77
2024/02/22 01:18:00;;;;;;;;;;;128.60;2252.80;;;;;;5095684;28;19948;-74
2024/02/22 01:20:26;;;;;;;;;;;128.50;2252.80;;;;;;5095505;28;19915;-75
2024/02/22 01:22:52;;;;;;;;;;;128.50;2252.80;;;;;;5095436;28;20379;-78
2024/02/22 01:25:17;;;;;;;;;;;128.40;2252.80;;;;;;5094759;28;19939;-74
2024/02/22 01:27:43;;;;;;;;;;;128.30;2252.80;;;;;;5088205;28;19943;-75
2024/02/22 01:30:09;;;;;;;;;;;128.20;2252.80;;;;;;5094377;28;19933;-74
2024/02/22 01:32:34;;;;;;;;;;;128.20;2252.80;;;;;;5095254;28;20355;-74
2024/02/22 01:35:00;;;;;;;;;;;128.10;2252.80;;;;;;5074881;28;19909;-74
2024/02/22 01:37:25;;;;;;;;;;;128.10;2252.80;;;;;;5095040;28;19923;-74
2024/02/22 01:39:51;;;;;;;;;;;128.00;2252.80;;;;;;5107515;28;19912;-74
2024/02/22 01:42:17;;;;;;;;;;;128.10;2252.80;;;;;;5095204;28;19908;-74
2024/02/22 01:44:42;;;;;;;;;;;128.10;2252.80;;;;;;5110515;28;19908;-75
2024/02/22 01:47:08;;;;;;;;;;;128.20;2252.80;;;;;;5110849;28;20338;-76
2024/02/22 01:49:34;;;;;;;;;;;128.00;2252.80;;;;;;5094709;28;20275;-75
2024/02/22 01:52:01;;;;;;;;;;;128.20;2252.80;;;;;;5094843;28;19916;-75
2024/02/22 01:54:26;;;;;;;;;;;128.20;2252.80;;;;;;5076951;28;19915;-75
2024/02/22 01:56:52;;;;;;;;;;;128.10;2252.80;;;;;;5094431;28;19924;-75
2024/02/22 01:59:18;;;;;;;;;;;128.20;2252.80;;;;;;5094690;28;19951;-74
2024/02/22 02:01:45;;;;;;;;;;;128.10;2252.80;;;;;;5110515;28;20374;-76
2024/02/22 02:04:12;;;;;;;;;;;103.30;2227.20;;;;;;5110524;28;20101;-75
2024/02/22 02:06:38;;;;;;;;;;;128.00;2252.80;;;;;;5094811;28;19908;-74
2024/02/22 02:09:04;;;;;;;;;;;103.30;2227.20;;;;;;5076270;28;20290;-75
2024/02/22 02:11:29;;;;;;;;;;;103.20;2227.20;;;;;;5094274;28;19908;-78
2024/02/22 02:13:55;;;;;;;;;;;103.20;2227.20;;;;;;5094201;28;20359;-74
2024/02/22 02:16:21;;;;;;;;;;;103.10;2227.20;;;;;;5094042;28;20287;-75
2024/02/22 02:18:46;;;;;;;;;;;103.20;2099.20;;;;;;5094174;28;19912;-74
2024/02/22 02:21:22;;;;;;;;;;;103.20;2124.80;;;;;;5094124;28;19915;-75
2024/02/22 02:23:57;;;;;;;;;;;103.20;2048.00;;;;;;5076146;28;19916;-74
2024/02/22 02:26:22;;;;;;;;;;;103.20;1971.20;;;;;;5093403;28;19920;-75
2024/02/22 02:28:50;;;;;;;;;;;103.20;2227.20;;;;;;5094107;28;19908;-76
2024/02/22 02:31:15;;;;;;;;;;;103.20;2099.20;;;;;;5109309;28;19908;-76
2024/02/22 02:33:41;;;;;;;;;;;103.20;1894.40;;;;;;5076012;28;20284;-74
2024/02/22 02:36:07;;;;;;;;;;;103.20;1971.20;;;;;;5094020;28;19962;-75
2024/02/22 02:38:32;;;;;;;;;;;103.30;1945.60;;;;;;5093861;28;19973;-74
2024/02/22 02:40:58;;;;;;;;;;;103.30;2227.20;;;;;;5093865;28;19908;-74
2024/02/22 02:43:23;;;;;;;;;;;103.30;2227.20;;;;;;5093809;28;20007;-74
2024/02/22 02:45:49;;;;;;;;;;;103.30;2227.20;;;;;;5094071;28;20272;-75
2024/02/22 02:48:19;;;;;;;;;;;128.00;2252.80;;;;;;5093975;28;19950;-74
2024/02/22 02:50:47;;;;;;;;;;;128.00;2252.80;;;;;;5109107;28;19923;-74
2024/02/22 02:53:12;;;;;;;;;;;128.00;2252.80;;;;;;5093522;28;19961;-75
2024/02/22 02:55:38;;;;;;;;;;;128.00;2252.80;;;;;;5093300;28;19920;-74
2024/02/22 02:58:05;;;;;;;;;;;128.10;2252.80;;;;;;5058954;28;20726;-74
2024/02/22 03:00:31;;;;;;;;;;;128.20;2252.80;;;;;;5093579;28;19920;-74
2024/02/22 03:02:57;;;;;;;;;;;128.20;2252.80;;;;;;5093683;28;19915;-74
2024/02/22 03:05:26;;;;;;;;;;;128.20;2252.80;;;;;;5093638;28;19908;-74
2024/02/22 03:07:53;;;;;;;;;;;128.10;2252.80;;;;;;5093780;28;19919;-75
2024/02/22 03:10:21;;;;;;;;;;;128.10;2252.80;;;;;;5093385;28;19955;-74
2024/02/22 03:12:47;;;;;;;;;;;128.20;2252.80;;;;;;5058720;28;20003;-74
2024/02/22 03:15:15;;;;;;;;;;;128.30;2252.80;;;;;;5093469;28;19940;-74
2024/02/22 03:17:41;;;;;;;;;;;128.50;2252.80;;;;;;5093403;28;20025;-74
2024/02/22 03:20:10;;;;;;;;;;;128.50;2252.80;;;;;;5093652;28;20015;-75
2024/02/22 03:22:36;;;;;;;;;;;128.40;2252.80;;;;;;5093318;28;19908;-74
2024/02/22 03:25:02;;;;;;;;;;;128.40;2252.80;;;;;;5093327;28;19935;-75
2024/02/22 03:27:27;;;;;;;;;;;128.30;2252.80;;;;;;5093563;28;20348;-74
2024/02/22 03:29:53;;;;;;;;;;;128.30;2252.80;;;;;;5093397;28;20418;-78
2024/02/22 03:32:18;;;;;;;;;;;128.20;2252.80;;;;;;5093546;28;19934;-74
2024/02/22 03:34:44;;;;;;;;;;;128.10;2252.80;;;;;;5075319;28;19931;-75
2024/02/22 03:37:12;;;;;;;;;;;103.30;2227.20;;;;;;5093273;28;19948;-75
2024/02/22 03:39:39;;;;;;;;;;;103.20;2227.20;;;;;;5091187;28;19915;-74
2024/02/22 03:42:04;;;;;;;;;;;103.20;2227.20;;;;;;5097025;28;20355;-75
2024/02/22 03:44:30;;;;;;;;;;;103.10;2227.20;;;;;;5097346;28;19916;-76
2024/02/22 03:46:56;;;;;;;;;;;103.10;2227.20;;;;;;5097259;28;19929;-75
2024/02/22 03:49:21;;;;;;;;;;;103.10;2227.20;;;;;;5097388;28;19919;-76
2024/02/22 03:51:47;;;;;;;;;;;103.10;2227.20;;;;;;5097072;28;20279;-74
2024/02/22 03:54:12;;;;;;;;;;;103.10;2227.20;;;;;;5097113;28;19908;-78
2024/02/22 03:56:40;;;;;;;;;;;103.30;2227.20;;;;;;5092971;28;19927;-74
2024/02/22 03:59:06;;;;;;;;;;;103.30;2227.20;;;;;;5078882;28;19908;-75
2024/02/22 04:01:32;;;;;;;;;;;128.10;2252.80;;;;;;5097828;28;19919;-75
2024/02/22 04:04:00;;;;;;;;;;;102.90;2227.20;;;;;;5097027;28;19908;-74
2024/02/22 04:06:26;;;;;;;;;;;128.00;2252.80;;;;;;5096835;28;20356;-74
2024/02/22 04:08:51;;;;;;;;;;;103.30;2227.20;;;;;;5096921;28;19918;-75
2024/02/22 04:11:17;;;;;;;;;;;103.30;2227.20;;;;;;5096448;28;19953;-74
2024/02/22 04:13:43;;;;;;;;;;;103.00;2227.20;;;;;;5096635;28;19908;-74
2024/02/22 04:16:08;;;;;;;;;;;128.00;2252.80;;;;;;5096386;28;19912;-74
2024/02/22 04:18:34;;;;;;;;;;;128.00;2252.80;;;;;;5096707;28;19912;-74
2024/02/22 04:21:00;;;;;;;;;;;128.00;2252.80;;;;;;5078367;28;20423;-74
2024/02/22 04:23:26;;;;;;;;;;;128.00;2252.80;;;;;;5096387;28;19915;-73
2024/02/22 04:25:51;;;;;;;;;;;103.30;2227.20;;;;;;5096213;28;20383;-79
2024/02/22 04:28:18;;;;;;;;;;;103.30;2227.20;;;;;;5096431;28;20006;-73
2024/02/22 04:30:45;;;;;;;;;;;103.30;2227.20;;;;;;5096027;28;19950;-74
2024/02/22 04:33:11;;;;;;;;;;;128.10;2252.80;;;;;;5096314;28;19908;-74
2024/02/22 04:35:36;;;;;;;;;;;103.30;2227.20;;;;;;5096069;28;19955;-73
2024/02/22 04:38:02;;;;;;;;;;;103.20;2227.20;;;;;;5096372;28;20020;-73
2024/02/22 04:40:28;;;;;;;;;;;103.10;2227.20;;;;;;5096010;28;19908;-73
2024/02/22 04:42:54;;;;;;;;;;;103.10;2227.20;;;;;;5096002;28;20421;-76
2024/02/22 04:45:19;;;;;;;;;;;103.00;2227.20;;;;;;5095913;28;19908;-74
2024/02/22 04:47:45;;;;;;;;;;;103.00;2227.20;;;;;;5096159;28;19955;-75
2024/02/22 04:50:11;;;;;;;;;;;102.90;2227.20;;;;;;5095521;28;20339;-73
2024/02/22 04:52:36;;;;;;;;;;;102.80;2227.20;;;;;;5096141;28;19923;-73
2024/02/22 04:55:03;;;;;;;;;;;102.60;2227.20;;;;;;5095568;28;19914;-73
2024/02/22 04:57:29;;;;;;;;;;;102.50;2227.20;;;;;;5095456;28;19967;-79
2024/02/22 04:59:54;;;;;;;;;;;102.40;2227.20;;;;;;5095897;28;19908;-75
2024/02/22 05:02:21;;;;;;;;;;;102.40;2227.20;;;;;;5077958;28;19995;-75
2024/02/22 05:04:46;;;;;;;;;;;102.40;2227.20;;;;;;5077500;28;19923;-76
2024/02/22 05:07:13;;;;;;;;;;;102.50;2227.20;;;;;;5095697;28;20260;-75
2024/02/22 05:09:38;;;;;;;;;;;102.50;2227.20;;;;;;5095462;28;19908;-76
2024/02/22 05:12:04;;;;;;;;;;;102.50;2227.20;;;;;;5077639;28;19961;-77
2024/02/22 05:14:30;;;;;;;;;;;102.50;2227.20;;;;;;5077211;28;20002;-75
2024/02/22 05:16:55;;;;;;;;;;;102.50;2227.20;;;;;;5077104;28;19923;-75
2024/02/22 05:19:21;;;;;;;;;;;102.40;2227.20;;;;;;5095346;28;19912;-75
2024/02/22 05:21:51;;;;;;;;;;;77.70;2227.20;;;;;;5087916;28;19908;-75
2024/02/22 05:24:20;;;;;;;;;;;102.40;2227.20;;;;;;5085823;28;19912;-74
2024/02/22 05:26:45;;;;;;;;;;;102.40;2227.20;;;;;;5085957;28;19917;-78
2024/02/22 05:29:11;;;;;;;;;;;102.40;2227.20;;;;;;5078295;28;19912;-74
2024/02/22 05:31:36;;;;;;;;;;;102.40;2227.20;;;;;;5084320;28;19912;-75
2024/02/22 05:34:03;;;;;;;;;;;102.50;2227.20;;;;;;5082545;28;19931;-74
2024/02/22 05:36:29;;;;;;;;;;;102.50;2227.20;;;;;;5083750;28;19916;-74
2024/02/22 05:38:55;;;;;;;;;;;102.40;2227.20;;;;;;5079741;28;20415;-74
2024/02/22 05:41:21;;;;;;;;;;;102.40;2227.20;;;;;;5075537;28;19908;-74
2024/02/22 05:43:47;;;;;;;;;;;102.40;2227.20;;;;;;5077034;28;19999;-75
2024/02/22 05:46:12;;;;;;;;;;;102.40;2227.20;;;;;;5077472;28;19943;-74
2024/02/22 05:48:38;;;;;;;;;;;102.40;2227.20;;;;;;5093239;28;19916;-72
2024/02/22 05:51:04;;;;;;;;;;;102.40;2227.20;;;;;;5075631;28;20371;-73
2024/02/22 05:53:29;;;;;;;;;;;102.50;2227.20;;;;;;5086853;28;20356;-73
2024/02/22 05:55:55;;;;;;;;;;;102.50;2227.20;;;;;;5084930;28;20392;-72
2024/02/22 05:58:20;;;;;;;;;;;102.60;2227.20;;;;;;5078947;28;19912;-72
2024/02/22 06:00:46;;;;;;;;;;;102.70;2227.20;;;;;;5087662;28;20363;-72
2024/02/22 06:03:12;;;;;;;;;;;102.80;2227.20;;;;;;5082161;28;19931;-72
2024/02/22 06:05:38;;;;;;;;;;;102.90;2227.20;;;;;;5085125;28;20376;-75
2024/02/22 06:08:04;;;;;;;;;;;103.00;2227.20;;;;;;5076701;28;19988;-75
2024/02/22 06:10:29;;;;;;;;;;;103.10;2227.20;;;;;;5077995;28;19909;-73
2024/02/22 06:12:55;;;;;;;;;;;103.10;2227.20;;;;;;5083825;28;19912;-72
2024/02/22 06:15:21;;;;;;;;;;;103.10;2227.20;;;;;;5082471;28;19967;-73
2024/02/22 06:17:47;;;;;;;;;;;103.20;2227.20;;;;;;5080603;28;20018;-73
2024/02/22 06:20:13;;;;;;;;;;;103.30;2227.20;;;;;;5090796;28;20381;-73
2024/02/22 06:22:39;;;;;;;;;;;103.30;2227.20;;;;;;5084075;28;19912;-73
2024/02/22 06:25:05;;;;;;;;;;;128.00;2252.80;;;;;;5082371;28;20249;-75
2024/02/22 06:27:32;;;;;;;;;;;128.10;2252.80;;;;;;5080502;28;19916;-74
2024/02/22 06:29:57;;;;;;;;;;;128.30;2073.60;;;;;;5081286;28;19909;-75
2024/02/22 06:32:26;;;;;;;;;;;128.40;1971.20;;;;;;5080875;28;19909;-74
2024/02/22 06:34:51;;;;;;;;;;;128.60;2252.80;;;;;;5079283;28;19913;-75
2024/02/22 06:37:18;;;;;;;;;;;128.60;2252.80;;;;;;5080392;28;19916;-77
2024/02/22 06:39:44;;;;;;;;;;;128.80;2252.80;;;;;;5080361;28;19954;-74
2024/02/22 06:42:09;;;;;;;;;;;128.80;2252.80;;;;;;5084521;28;20314;-74
2024/02/22 06:44:35;;;;;;;;;;;128.70;2252.80;;;;;;5076437;28;20432;-73
2024/02/22 06:47:01;;;;;;;;;;;128.90;2252.80;;;;;;5076393;28;19912;-73
2024/02/22 06:49:27;;;;;;;;;;;153.60;2252.80;;;;;;5080068;28;19912;-73
2024/02/22 06:51:52;;;;;;;;;;;153.80;2252.80;;;;;;5089493;28;20405;-74
2024/02/22 06:54:19;;;;;;;;;;;153.90;2252.80;;;;;;5083653;28;19943;-74
2024/02/22 06:56:44;;;;;;;;;;;153.90;2252.80;;;;;;5081157;28;19924;-74
2024/02/22 06:59:11;;;;;;;;;;;154.10;2252.80;;;;;;5087301;28;20256;-73
2024/02/22 07:01:37;;;;;;;;;;;154.20;2252.80;;;;;;5080334;28;19920;-73
2024/02/22 07:04:03;;;;;;;;;;;154.30;2252.80;;;;;;5089933;28;19912;-73
2024/02/22 07:06:28;;;;;;;;;;;154.50;2252.80;;;;;;5083441;28;19916;-74
2024/02/22 07:08:54;;;;;;;;;;;179.20;2252.80;;;;;;5075238;28;19916;-73
2024/02/22 07:11:20;;;;;;;;;;;179.50;2252.80;;;;;;5076303;28;20411;-73
2024/02/22 07:13:45;;;;;;;;;;;179.60;2252.80;;;;;;5083487;28;19916;-73
2024/02/22 07:16:11;;;;;;;;;;;179.70;2252.80;;;;;;5083945;28;20386;-74
2024/02/22 07:18:36;;;;;;;;;;;179.80;2252.80;;;;;;5097644;28;20062;-72
2024/02/22 07:21:03;;;;;;;;;;;179.90;2252.80;;;;;;5092032;28;20002;-72
2024/02/22 07:23:29;;;;;;;;;;;180.00;2252.80;;;;;;5094653;28;19912;-73
2024/02/22 07:25:55;;;;;;;;;;;180.00;2252.80;;;;;;5082363;28;20395;-77
2024/02/22 07:28:21;;;;;;;;;;;179.90;2252.80;;;;;;5085355;28;19952;-74
2024/02/22 07:30:47;;;;;;;;;;;179.90;2252.80;;;;;;5094428;28;19915;-74
2024/02/22 07:33:13;;;;;;;;;;;180.10;2252.80;;;;;;5091104;28;19990;-74
2024/02/22 07:35:38;;;;;;;;;;;180.00;2252.80;;;;;;5089578;28;20003;-74
2024/02/22 07:38:04;;;;;;;;;;;179.90;2252.80;;;;;;5093957;28;20375;-72
2024/02/22 07:40:31;;;;;;;;;;;180.00;2252.80;;;;;;5086396;28;20004;-74
2024/02/22 07:42:57;;;;;;;;;;;180.00;2252.80;;;;;;5082075;28;20271;-74
2024/02/22 07:45:28;;;;;;;;;;;180.10;2252.80;;;;;;5086067;28;19908;-75
2024/02/22 07:47:55;;;;;;;;;;;204.80;2252.80;;;;;;5082343;28;19938;-74
2024/02/22 07:50:21;;;;;;;;;;;204.90;2252.80;;;;;;5083601;28;19915;-75
2024/02/22 07:52:46;;;;;;;;;;;205.00;2252.80;;;;;;5084069;28;19913;-75
2024/02/22 07:55:13;;;;;;;;;;;205.10;2252.80;;;;;;5086664;28;19923;-73
2024/02/22 07:57:39;;;;;;;;;;;205.30;2252.80;;;;;;5089488;28;19961;-73
2024/02/22 08:00:07;;;;;;;;;;;205.50;2252.80;;;;;;5080494;28;19913;-73
2024/02/22 08:02:33;;;;;;;;;;;205.50;2252.80;;;;;;5088824;28;19913;-74
2024/02/22 08:04:59;;;;;;;;;;;205.60;2252.80;;;;;;5078085;28;19908;-73
2024/02/22 08:07:25;;;;;;;;;;;205.70;2252.80;;;;;;5091241;28;19908;-74
2024/02/22 08:09:50;;;;;;;;;;;230.40;2252.80;;;;;;5088175;28;19908;-73
2024/02/22 08:12:16;;;;;;;;;;;230.50;2252.80;;;;;;5104217;28;19915;-74
2024/02/22 08:14:42;;;;;;;;;;;230.40;2252.80;;;;;;5085420;28;19923;-75
2024/02/22 08:17:07;;;;;;;;;;;230.40;2252.80;;;;;;5091152;28;19928;-75
2024/02/22 08:19:33;;;;;;;;;;;230.50;2252.80;;;;;;5088855;28;19945;-75
2024/02/22 08:21:58;;;;;;;;;;;230.60;2252.80;;;;;;5088382;28;19980;-73
2024/02/22 08:24:26;;;;;;;;;;;230.60;2252.80;;;;;;5088832;28;20256;-72
2024/02/22 08:26:52;;;;;;;;;;;230.70;2252.80;;;;;;5078446;28;20019;-75
2024/02/22 08:29:17;;;;;;;;;;;230.70;2252.80;;;;;;5085608;28;20356;-75
2024/02/22 08:31:43;;;;;;;;;;;230.70;2252.80;;;;;;5092814;28;19908;-76
2024/02/22 08:34:09;;;;;;;;;;;230.70;2252.80;;;;;;5080341;28;19908;-75
2024/02/22 08:36:36;;;;;;;;;;;230.70;2252.80;;;;;;5066937;28;20275;-74
2024/02/22 08:39:02;;;;;;;;;;;230.80;2252.80;;;;;;5079714;28;19974;-74
2024/02/22 08:41:28;;;;;;;;;;;230.80;2252.80;;;;;;5086962;28;20367;-75
2024/02/22 08:43:54;;;;;;;;;;;230.90;2252.80;;;;;;5094406;28;19912;-75
2024/02/22 08:46:20;;;;;;;;;;;230.90;2252.80;;;;;;5060647;28;19908;-73
2024/02/22 08:48:46;;;;;;;;;;;231.00;2252.80;;;;;;5083829;28;19912;-76
2024/02/22 08:51:11;;;;;;;;;;;231.10;2252.80;;;;;;5088639;28;19912;-74
2024/02/22 08:53:40;;;;;;;;;;;231.10;2252.80;;;;;;5075703;28;19915;-73
2024/02/22 08:56:09;;;;;;;;;;;231.20;2252.80;;;;;;5075443;28;20287;-73
2024/02/22 08:58:34;;;;;;;;;;;231.20;2252.80;;;;;;5082438;28;19909;-73
2024/02/22 09:01:00;;;;;;;;;;;231.30;2252.80;;;;;;5095646;28;19915;-73
2024/02/22 09:03:26;;;;;;;;;;;256.00;2252.80;;;;;;5095625;28;19915;-73
2024/02/22 09:05:52;;;;;;;;;;;256.20;2252.80;;;;;;5095529;28;19919;-73
2024/02/22 09:08:18;;;;;;;;;;;256.30;2252.80;;;;;;5095586;28;19995;-73
2024/02/22 09:10:43;;;;;;;;;;;256.30;2252.80;;;;;;5095636;28;19930;-74
2024/02/22 09:13:09;;;;;;;;;;;256.20;2252.80;;;;;;5095389;28;20413;-74
2024/02/22 09:15:34;;;;;;;;;;;256.20;2252.80;;;;;;5095175;28;19908;-74
2024/02/22 09:18:00;;;;;;;;;;;256.30;2252.80;;;;;;5088863;28;19962;-74
2024/02/22 09:20:27;;;;;;;;;;;256.30;2252.80;;;;;;5088237;28;19908;-74
2024/02/22 09:22:53;;;;;;;;;;;256.50;2252.80;;;;;;5075678;28;20007;-74
2024/02/22 09:25:18;;;;;;;;;;;256.50;2252.80;;;;;;5088107;28;19916;-75
2024/02/22 09:27:44;;;;;;;;;;;256.50;2252.80;;;;;;5095205;28;19908;-73
2024/02/22 09:30:10;;;;;;;;;;;256.60;2252.80;;;;;;5095302;28;19908;-72
2024/02/22 09:32:36;;;;;;;;;;;256.70;2252.80;;;;;;5095014;28;20359;-74
2024/02/22 09:35:01;;;;;;;;;;;256.80;2252.80;;;;;;5094968;28;19915;-74
2024/02/22 09:37:27;;;;;;;;;;;256.80;2252.80;;;;;;5094077;28;20316;-76
2024/02/22 09:39:53;;;;;;;;;;;256.90;2252.80;;;;;;5076900;28;20360;-74
2024/02/22 09:42:19;;;;;;;;;;;281.70;2278.40;;;;;;5094692;28;19933;-73
2024/02/22 09:44:46;;;;;;;;;;;281.80;2278.40;;;;;;5095060;28;19908;-72
2024/02/22 09:47:14;;;;;;;;;;;282.00;2278.40;;;;;;5086911;28;19913;-72
2024/02/22 09:49:41;;;;;;;;;;;282.20;2278.40;;;;;;5074541;28;20368;-73
2024/02/22 09:52:08;;;;;;;;;;;282.20;2278.40;;;;;;5087895;28;19909;-77
2024/02/22 09:54:33;;;;;;;;;;;282.40;2278.40;;;;;;5088037;28;19919;-73
2024/02/22 09:56:59;;;;;;;;;;;307.30;2304.00;;;;;;5094680;28;19924;-78
2024/02/22 09:59:25;;;;;;;;;;;307.50;2304.00;;;;;;5094408;28;19916;-73
2024/02/22 10:01:50;;;;;;;;;;;307.70;2304.00;;;;;;5094741;28;20286;-72
2024/02/22 10:04:19;;;;;;;;;;;307.80;2304.00;;;;;;5094375;28;19908;-74
2024/02/22 10:06:46;;;;;;;;;;;307.80;2304.00;;;;;;5076188;28;19908;-79
2024/02/22 10:09:11;;;;;;;;;;;307.70;2304.00;;;;;;5094491;28;19919;-74
2024/02/22 10:11:43;;;;;;;;;;;307.80;2304.00;;;;;;5094647;28;19908;-73
2024/02/22 10:14:10;;;;;;;;;;;307.90;2304.00;;;;;;5094565;28;19912;-81
2024/02/22 10:16:38;;;;;;;;;;;307.90;2304.00;;;;;;5094373;28;19912;-74
2024/02/22 10:19:03;;;;;;;;;;;307.80;2304.00;;;;;;5094153;28;19999;-74
2024/02/22 10:21:29;;;;;;;;;;;307.90;2304.00;;;;;;5094380;28;19936;-79
2024/02/22 10:23:59;;;;;;;;;;;308.00;2304.00;;;;;;5094320;28;19955;-74
2024/02/22 10:26:32;;;;;;;;;;;308.10;2304.00;;;;;;5093921;28;19912;-74
2024/02/22 10:29:11;;;;;;;;;;;308.10;2304.00;;;;;;5093894;28;19919;-75
2024/02/22 10:31:39;;;;;;;;;;;332.90;2329.60;;;;;;5075694;28;19908;-74
2024/02/22 10:34:05;;;;;;;;;;;333.10;2329.60;;;;;;5094051;28;20355;-74
2024/02/22 10:36:30;;;;;;;;;;;333.10;2329.60;;;;;;5094077;28;19916;-76
2024/02/22 10:38:57;;;;;;;;;;;333.20;2329.60;;;;;;5094275;28;20406;-74
2024/02/22 10:41:24;;;;;;;;;;;333.30;2329.60;;;;;;5093852;28;19909;-74
2024/02/22 10:43:52;;;;;;;;;;;333.30;2329.60;;;;;;5093903;28;20423;-74
2024/02/22 10:46:17;;;;;;;;;;;333.30;2329.60;;;;;;5093876;28;20272;-78
2024/02/22 10:48:45;;;;;;;;;;;333.40;2329.60;;;;;;5093643;28;19908;-74
2024/02/22 10:51:11;;;;;;;;;;;333.50;2329.60;;;;;;5094203;28;19908;-74
2024/02/22 10:53:39;;;;;;;;;;;333.50;2329.60;;;;;;5094064;28;20275;-76
2024/02/22 10:56:06;;;;;;;;;;;333.50;2329.60;;;;;;5075360;28;19928;-80
2024/02/22 10:58:35;;;;;;;;;;;333.50;2329.60;;;;;;5079774;28;20202;-73
2024/02/22 11:01:02;;;;;;;;;;;333.60;2329.60;;;;;;5093565;28;19908;-73
2024/02/22 11:03:28;;;;;;;;;;;333.70;2329.60;;;;;;5080593;28;20026;-74
2024/02/22 11:05:55;;;;;;;;;;;333.70;2329.60;;;;;;5093675;28;20418;-73
2024/02/22 11:08:21;;;;;;;;;;;358.40;2329.60;;;;;;5093960;28;19914;-74
2024/02/22 11:11:07;;;;;;;;;;;358.40;2329.60;;;;;;5093816;28;19945;-73
2024/02/22 11:13:33;;;;;;;;;;;358.50;2329.60;;;;;;5093323;28;20268;-78
2024/02/22 11:15:58;;;;;;;;;;;358.50;2329.60;;;;;;5093405;28;19908;-74
2024/02/22 11:18:24;;;;;;;;;;;358.60;2329.60;;;;;;5093776;28;20295;-75
2024/02/22 11:20:50;;;;;;;;;;;358.80;2329.60;;;;;;5093280;28;19951;-74
2024/02/22 11:23:18;;;;;;;;;;;359.10;2329.60;;;;;;5075441;28;19908;-75
2024/02/22 11:25:44;;;;;;;;;;;384.10;2304.00;;;;;;5093091;28;19919;-79
2024/02/22 11:28:10;;;;;;;;;;;384.20;2227.20;;;;;;5093367;28;19913;-75
2024/02/22 11:30:35;;;;;;;;;;;384.40;2201.60;;;;;;5093283;28;19908;-75
2024/02/22 11:33:01;;;;;;;;;;;384.50;2073.60;;;;;;5075393;28;19914;-76
2024/02/22 11:35:30;;;;;;;;;;;384.50;2048.00;;;;;;5075303;28;19915;-75
2024/02/22 11:37:56;;;;;;;;;;;384.70;2099.20;;;;;;5075173;28;19920;-75
2024/02/22 11:40:22;;;;;;;;;;;384.70;2099.20;;;;;;5093310;28;19951;-77
2024/02/22 11:42:55;;;;;;;;;;;384.80;2073.60;;;;;;5108311;28;19970;-75
2024/02/22 11:45:20;;;;;;;;;;;384.70;2124.80;;;;;;5075167;28;19931;-76
2024/02/22 11:47:46;;;;;;;;;;;384.70;2176.00;;;;;;5093465;28;20351;-76
2024/02/22 11:50:13;;;;;;;;;;;384.80;2124.80;;;;;;5075101;28;20367;-76
2024/02/22 11:52:39;;;;;;;;;;;;;;;;;;5093382;28;20003;-75
2024/02/22 11:55:08;;;;;;;;;;;409.90;2022.40;;;;;;5074907;28;19943;-77
2024/02/22 11:57:33;;;;;;;;;;;409.80;1996.80;;;;;;5092584;28;19971;-77
2024/02/22 11:59:59;;;;;;;;;;;409.90;1996.80;;;;;;5095246;28;19919;-77
2024/02/22 12:02:25;;;;;;;;;;;410.10;1996.80;;;;;;5078500;28;20282;-78
2024/02/22 12:04:51;;;;;;;;;;;410.50;1894.40;;;;;;5078757;28;19954;-77
2024/02/22 12:07:16;;;;;;;;;;;410.50;1894.40;;;;;;5078491;28;19908;-75
2024/02/22 12:09:42;;;;;;;;;;;435.20;1843.20;;;;;;5096750;28;20007;-77
2024/02/22 12:12:08;;;;;;;;;;;435.40;1792.00;;;;;;5097177;28;19919;-75
2024/02/22 12:14:33;;;;;;;;;;;435.40;1817.60;;;;;;5078472;28;19931;-75
2024/02/22 12:17:01;;;;;;;;;;;435.50;1766.40;;;;;;5111516;28;19920;-75
2024/02/22 12:19:27;;;;;;;;;;;435.60;1740.80;;;;;;5096966;28;20011;-75
2024/02/22 12:21:52;;;;;;;;;;;435.20;1740.80;;;;;;5096353;28;19974;-76
2024/02/22 12:24:18;;;;;;;;;;;435.20;1766.40;;;;;;5096418;28;19908;-79
2024/02/22 12:26:54;;;;;;;;;;;410.50;1792.00;;;;;;5078152;28;19908;-76
2024/02/22 12:29:20;;;;;;;;;;;410.40;1792.00;;;;;;5078382;28;19916;-76
2024/02/22 12:31:45;;;;;;;;;;;410.40;1792.00;;;;;;5112214;28;19915;-78
2024/02/22 12:34:11;;;;;;;;;;;435.20;1817.60;;;;;;5096628;28;19918;-78
2024/02/22 12:36:36;;;;;;;;;;;435.20;1792.00;;;;;;5096526;28;20295;-79
2024/02/22 12:39:02;;;;;;;;;;;435.30;1792.00;;;;;;5078212;28;19957;-77
2024/02/22 12:41:28;;;;;;;;;;;435.30;1817.60;;;;;;5096245;28;20240;-78
2024/02/22 12:43:55;;;;;;;;;;;435.20;1766.40;;;;;;5078375;28;19909;-80
2024/02/22 12:46:21;;;;;;;;;;;435.50;1792.00;;;;;;5095903;28;19908;-75
2024/02/22 12:48:46;;;;;;;;;;;435.60;1740.80;;;;;;5096267;28;19998;-75
2024/02/22 12:51:13;;;;;;;;;;;435.30;1766.40;;;;;;5096267;28;19935;-75
2024/02/22 12:53:39;;;;;;;;;;;435.20;1740.80;;;;;;5095846;28;19908;-80
2024/02/22 12:56:05;;;;;;;;;;;410.40;1766.40;;;;;;5095885;28;20394;-76
2024/02/22 12:58:31;;;;;;;;;;;410.50;1792.00;;;;;;5111615;28;19920;-77
2024/02/22 13:00:57;;;;;;;;;;;435.20;1792.00;;;;;;5077906;28;19913;-76
2024/02/22 13:03:22;;;;;;;;;;;410.50;1766.40;;;;;;5095555;28;20109;-77
2024/02/22 13:05:48;;;;;;;;;;;435.20;1766.40;;;;;;5095746;28;19960;-77
2024/02/22 13:08:14;;;;;;;;;;;410.50;1766.40;;;;;;5077044;28;19962;-77
2024/02/22 13:10:39;;;;;;;;;;;410.20;1792.00;;;;;;5095425;28;20318;-76
2024/02/22 13:13:08;;;;;;;;;;;410.10;1817.60;;;;;;5095716;28;20397;-79
2024/02/22 13:15:38;;;;;;;;;;;410.20;1792.00;;;;;;5111092;28;19908;-75
2024/02/22 13:18:03;;;;;;;;;;;410.20;1766.40;;;;;;5095074;28;19924;-78
2024/02/22 13:20:32;;;;;;;;;;;410.30;1766.40;;;;;;5095175;28;19913;-79
2024/02/22 13:22:58;;;;;;;;;;;410.30;1740.80;;;;;;5077202;28;19915;-79
2024/02/22 13:25:23;;;;;;;;;;;435.20;1740.80;;;;;;5095348;28;19999;-76
2024/02/22 13:27:49;;;;;;;;;;;435.20;1740.80;;;;;;5077659;28;19916;-76
2024/02/22 13:30:15;;;;;;;;;;;435.20;1689.60;;;;;;5095374;28;19912;-76
2024/02/22 13:32:44;;;;;;;;;;;435.30;1715.20;;;;;;5076375;28;20295;-78
2024/02/22 13:35:10;;;;;;;;;;;435.60;1689.60;;;;;;5076484;28;19908;-76